sensor_id;sensor_type;location;lat;lon;timestamp;P1;durP1;ratioP1;P2;durP2;ratioP2
14272;SDS011;7220;49.450;11.052;2023-08-21T00:02:41;12.23;;;10.93;;
14272;SDS011;7220;49.450;11.052;2023-08-21T00:06:41;12.95;;;11.30;;
14272;SDS011;7220;49.450;11.052;2023-08-21T00:10:42;12.60;;;11.43;;
14272;SDS011;7220;49.450;11.052;2023-08-21T00:14:42;12.10;;;11.00;;
14272;SDS011;7220;49.450;11.052;2023-08-21T00:18:43;12.95;;;11.60;;
14272;SDS011;7220;49.450;11.052;2023-08-21T00:22:43;13.77;;;11.85;;
14272;SDS011;7220;49.450;11.052;2023-08-21T00:26:43;13.03;;;11.73;;
14272;SDS011;7220;49.450;11.052;2023-08-21T00:30:44;12.77;;;11.53;;
14272;SDS011;7220;49.450;11.052;2023-08-21T00:34:44;13.13;;;11.83;;
14272;SDS011;7220;49.450;11.052;2023-08-21T00:38:44;13.77;;;11.77;;
14272;SDS011;7220;49.450;11.052;2023-08-21T00:42:45;12.82;;;11.50;;
14272;SDS011;7220;49.450;11.052;2023-08-21T00:46:45;12.57;;;11.37;;
14272;SDS011;7220;49.450;11.052;2023-08-21T00:50:46;12.43;;;11.43;;
14272;SDS011;7220;49.450;11.052;2023-08-21T00:54:47;13.50;;;12.10;;
14272;SDS011;7220;49.450;11.052;2023-08-21T00:58:47;13.50;;;12.10;;
14272;SDS011;7220;49.450;11.052;2023-08-21T01:02:47;14.15;;;12.52;;
14272;SDS011;7220;49.450;11.052;2023-08-21T01:06:51;13.93;;;12.50;;
14272;SDS011;7220;49.450;11.052;2023-08-21T01:15:17;13.60;;;11.95;;
14272;SDS011;7220;49.450;11.052;2023-08-21T01:19:37;13.35;;;11.98;;
14272;SDS011;7220;49.450;11.052;2023-08-21T01:23:40;16.65;;;13.88;;
14272;SDS011;7220;49.450;11.052;2023-08-21T01:27:47;17.02;;;15.43;;
14272;SDS011;7220;49.450;11.052;2023-08-21T01:32:13;20.50;;;16.67;;
14272;SDS011;7220;49.450;11.052;2023-08-21T01:36:18;17.88;;;16.17;;
14272;SDS011;7220;49.450;11.052;2023-08-21T01:40:23;19.67;;;17.73;;
14272;SDS011;7220;49.450;11.052;2023-08-21T01:44:24;20.27;;;18.30;;
14272;SDS011;7220;49.450;11.052;2023-08-21T01:48:26;20.55;;;18.55;;
14272;SDS011;7220;49.450;11.052;2023-08-21T01:52:26;19.93;;;17.83;;
14272;SDS011;7220;49.450;11.052;2023-08-21T01:56:27;20.20;;;18.20;;
14272;SDS011;7220;49.450;11.052;2023-08-21T02:00:27;20.27;;;18.30;;
14272;SDS011;7220;49.450;11.052;2023-08-21T02:04:27;20.92;;;19.05;;
14272;SDS011;7220;49.450;11.052;2023-08-21T02:08:30;20.35;;;18.55;;
14272;SDS011;7220;49.450;11.052;2023-08-21T02:12:32;21.02;;;19.02;;
14272;SDS011;7220;49.450;11.052;2023-08-21T02:16:32;20.90;;;18.77;;
14272;SDS011;7220;49.450;11.052;2023-08-21T02:20:33;19.02;;;17.13;;
14272;SDS011;7220;49.450;11.052;2023-08-21T02:24:33;21.07;;;18.97;;
14272;SDS011;7220;49.450;11.052;2023-08-21T02:28:33;20.43;;;18.57;;
14272;SDS011;7220;49.450;11.052;2023-08-21T02:32:34;20.92;;;18.92;;
14272;SDS011;7220;49.450;11.052;2023-08-21T02:36:34;19.83;;;18.03;;
14272;SDS011;7220;49.450;11.052;2023-08-21T02:40:35;21.10;;;18.77;;
14272;SDS011;7220;49.450;11.052;2023-08-21T02:44:35;20.20;;;18.25;;
14272;SDS011;7220;49.450;11.052;2023-08-21T02:48:35;20.70;;;18.53;;
14272;SDS011;7220;49.450;11.052;2023-08-21T02:52:36;20.10;;;18.20;;
14272;SDS011;7220;49.450;11.052;2023-08-21T02:56:36;20.25;;;18.25;;
14272;SDS011;7220;49.450;11.052;2023-08-21T03:00:37;20.70;;;18.77;;
14272;SDS011;7220;49.450;11.052;2023-08-21T03:04:37;20.92;;;18.80;;
14272;SDS011;7220;49.450;11.052;2023-08-21T03:08:38;20.63;;;18.57;;
14272;SDS011;7220;49.450;11.052;2023-08-21T03:12:38;21.17;;;19.37;;
14272;SDS011;7220;49.450;11.052;2023-08-21T03:16:38;19.98;;;18.15;;
14272;SDS011;7220;49.450;11.052;2023-08-21T03:20:43;18.73;;;16.83;;
14272;SDS011;7220;49.450;11.052;2023-08-21T03:24:44;20.33;;;18.52;;
14272;SDS011;7220;49.450;11.052;2023-08-21T03:28:45;19.00;;;17.10;;
14272;SDS011;7220;49.450;11.052;2023-08-21T03:32:45;20.00;;;17.90;;
14272;SDS011;7220;49.450;11.052;2023-08-21T03:36:45;20.15;;;18.35;;
14272;SDS011;7220;49.450;11.052;2023-08-21T03:40:46;20.05;;;18.05;;
14272;SDS011;7220;49.450;11.052;2023-08-21T03:44:46;19.70;;;17.93;;
14272;SDS011;7220;49.450;11.052;2023-08-21T03:48:49;20.35;;;18.45;;
14272;SDS011;7220;49.450;11.052;2023-08-21T03:52:50;21.38;;;19.33;;
14272;SDS011;7220;49.450;11.052;2023-08-21T03:56:51;20.77;;;18.80;;
14272;SDS011;7220;49.450;11.052;2023-08-21T04:00:51;21.43;;;19.30;;
14272;SDS011;7220;49.450;11.052;2023-08-21T04:04:52;21.27;;;19.20;;
14272;SDS011;7220;49.450;11.052;2023-08-21T04:08:52;20.97;;;19.27;;
14272;SDS011;7220;49.450;11.052;2023-08-21T04:12:52;21.60;;;19.40;;
14272;SDS011;7220;49.450;11.052;2023-08-21T04:16:53;20.95;;;18.88;;
14272;SDS011;7220;49.450;11.052;2023-08-21T04:20:53;21.70;;;19.70;;
14272;SDS011;7220;49.450;11.052;2023-08-21T04:24:53;22.60;;;20.50;;
14272;SDS011;7220;49.450;11.052;2023-08-21T04:28:53;24.57;;;21.37;;
14272;SDS011;7220;49.450;11.052;2023-08-21T04:32:54;22.83;;;20.48;;
14272;SDS011;7220;49.450;11.052;2023-08-21T04:36:54;26.57;;;22.20;;
14272;SDS011;7220;49.450;11.052;2023-08-21T04:40:54;24.07;;;21.57;;
14272;SDS011;7220;49.450;11.052;2023-08-21T04:44:55;23.87;;;21.50;;
14272;SDS011;7220;49.450;11.052;2023-08-21T04:48:55;23.67;;;21.30;;
14272;SDS011;7220;49.450;11.052;2023-08-21T04:52:55;23.47;;;21.10;;
14272;SDS011;7220;49.450;11.052;2023-08-21T04:56:56;23.60;;;21.40;;
14272;SDS011;7220;49.450;11.052;2023-08-21T05:00:56;24.07;;;21.63;;
14272;SDS011;7220;49.450;11.052;2023-08-21T05:04:56;23.98;;;21.58;;
14272;SDS011;7220;49.450;11.052;2023-08-21T05:08:56;26.13;;;23.57;;
14272;SDS011;7220;49.450;11.052;2023-08-21T05:12:57;24.65;;;22.30;;
14272;SDS011;7220;49.450;11.052;2023-08-21T05:16:57;25.17;;;22.77;;
14272;SDS011;7220;49.450;11.052;2023-08-21T05:20:58;26.25;;;23.45;;
14272;SDS011;7220;49.450;11.052;2023-08-21T05:24:59;25.43;;;22.83;;
14272;SDS011;7220;49.450;11.052;2023-08-21T05:28:59;24.43;;;21.93;;
14272;SDS011;7220;49.450;11.052;2023-08-21T05:32:59;25.42;;;23.02;;
14272;SDS011;7220;49.450;11.052;2023-08-21T05:37:00;26.67;;;23.47;;
14272;SDS011;7220;49.450;11.052;2023-08-21T05:41:00;26.43;;;23.83;;
14272;SDS011;7220;49.450;11.052;2023-08-21T05:45:01;25.60;;;22.63;;
14272;SDS011;7220;49.450;11.052;2023-08-21T05:49:01;25.85;;;23.25;;
14272;SDS011;7220;49.450;11.052;2023-08-21T05:53:05;26.15;;;23.45;;
14272;SDS011;7220;49.450;11.052;2023-08-21T05:57:06;26.27;;;23.40;;
14272;SDS011;7220;49.450;11.052;2023-08-21T06:01:06;25.93;;;23.43;;
14272;SDS011;7220;49.450;11.052;2023-08-21T06:05:06;26.57;;;22.97;;
14272;SDS011;7220;49.450;11.052;2023-08-21T06:09:07;26.77;;;23.98;;
14272;SDS011;7220;49.450;11.052;2023-08-21T06:13:07;26.37;;;23.53;;
14272;SDS011;7220;49.450;11.052;2023-08-21T06:17:08;25.38;;;22.77;;
14272;SDS011;7220;49.450;11.052;2023-08-21T06:21:09;27.85;;;25.00;;
14272;SDS011;7220;49.450;11.052;2023-08-21T06:25:09;26.88;;;24.25;;
14272;SDS011;7220;49.450;11.052;2023-08-21T06:29:10;26.80;;;24.15;;
14272;SDS011;7220;49.450;11.052;2023-08-21T06:33:10;25.97;;;23.60;;
14272;SDS011;7220;49.450;11.052;2023-08-21T06:37:11;27.75;;;24.83;;
14272;SDS011;7220;49.450;11.052;2023-08-21T06:41:12;27.15;;;24.42;;
14272;SDS011;7220;49.450;11.052;2023-08-21T06:45:13;28.53;;;25.57;;
14272;SDS011;7220;49.450;11.052;2023-08-21T06:49:13;30.60;;;27.45;;
14272;SDS011;7220;49.450;11.052;2023-08-21T06:53:13;28.20;;;25.40;;
14272;SDS011;7220;49.450;11.052;2023-08-21T06:57:14;29.67;;;26.60;;
14272;SDS011;7220;49.450;11.052;2023-08-21T07:01:15;30.80;;;27.23;;
14272;SDS011;7220;49.450;11.052;2023-08-21T07:05:17;29.27;;;26.45;;
14272;SDS011;7220;49.450;11.052;2023-08-21T07:09:17;31.20;;;27.60;;
14272;SDS011;7220;49.450;11.052;2023-08-21T07:13:17;33.07;;;29.30;;
14272;SDS011;7220;49.450;11.052;2023-08-21T07:17:18;28.42;;;25.70;;
14272;SDS011;7220;49.450;11.052;2023-08-21T07:21:18;29.40;;;26.53;;
14272;SDS011;7220;49.450;11.052;2023-08-21T07:25:19;29.07;;;26.13;;
14272;SDS011;7220;49.450;11.052;2023-08-21T07:29:19;28.50;;;25.67;;
14272;SDS011;7220;49.450;11.052;2023-08-21T07:33:19;28.08;;;25.13;;
14272;SDS011;7220;49.450;11.052;2023-08-21T07:37:20;28.63;;;25.80;;
14272;SDS011;7220;49.450;11.052;2023-08-21T07:41:20;29.80;;;26.63;;
14272;SDS011;7220;49.450;11.052;2023-08-21T07:45:20;25.57;;;23.13;;
14272;SDS011;7220;49.450;11.052;2023-08-21T07:49:21;26.33;;;23.20;;
14272;SDS011;7220;49.450;11.052;2023-08-21T07:53:22;24.53;;;22.03;;
14272;SDS011;7220;49.450;11.052;2023-08-21T07:57:22;25.23;;;22.67;;
14272;SDS011;7220;49.450;11.052;2023-08-21T08:01:23;24.15;;;21.83;;
14272;SDS011;7220;49.450;11.052;2023-08-21T08:05:23;22.85;;;20.70;;
14272;SDS011;7220;49.450;11.052;2023-08-21T08:09:23;23.13;;;20.77;;
14272;SDS011;7220;49.450;11.052;2023-08-21T08:13:23;22.47;;;20.17;;
14272;SDS011;7220;49.450;11.052;2023-08-21T08:17:24;22.93;;;20.77;;
14272;SDS011;7220;49.450;11.052;2023-08-21T08:21:24;20.73;;;18.83;;
14272;SDS011;7220;49.450;11.052;2023-08-21T08:25:24;22.40;;;20.33;;
14272;SDS011;7220;49.450;11.052;2023-08-21T08:29:25;21.60;;;19.50;;
14272;SDS011;7220;49.450;11.052;2023-08-21T08:33:25;19.43;;;17.53;;
14272;SDS011;7220;49.450;11.052;2023-08-21T08:37:26;18.25;;;16.65;;
14272;SDS011;7220;49.450;11.052;2023-08-21T08:41:33;18.27;;;16.17;;
14272;SDS011;7220;49.450;11.052;2023-08-21T08:45:50;17.88;;;16.27;;
14272;SDS011;7220;49.450;11.052;2023-08-21T08:49:52;18.23;;;16.33;;
14272;SDS011;7220;49.450;11.052;2023-08-21T08:53:54;18.52;;;16.75;;
14272;SDS011;7220;49.450;11.052;2023-08-21T08:57:57;20.13;;;18.02;;
14272;SDS011;7220;49.450;11.052;2023-08-21T09:01:58;19.98;;;17.35;;
14272;SDS011;7220;49.450;11.052;2023-08-21T09:05:59;19.88;;;17.88;;
14272;SDS011;7220;49.450;11.052;2023-08-21T09:10:00;19.98;;;17.88;;
14272;SDS011;7220;49.450;11.052;2023-08-21T09:14:02;18.65;;;16.83;;
14272;SDS011;7220;49.450;11.052;2023-08-21T09:18:03;17.20;;;14.82;;
14272;SDS011;7220;49.450;11.052;2023-08-21T09:22:11;13.98;;;12.50;;
14272;SDS011;7220;49.450;11.052;2023-08-21T09:26:19;16.13;;;14.70;;
14272;SDS011;7220;49.450;11.052;2023-08-21T09:30:20;15.52;;;14.23;;
14272;SDS011;7220;49.450;11.052;2023-08-21T09:34:21;17.13;;;15.52;;
14272;SDS011;7220;49.450;11.052;2023-08-21T09:38:21;16.40;;;14.87;;
14272;SDS011;7220;49.450;11.052;2023-08-21T09:42:22;15.68;;;14.18;;
14272;SDS011;7220;49.450;11.052;2023-08-21T09:46:24;14.10;;;12.65;;
14272;SDS011;7220;49.450;11.052;2023-08-21T09:50:26;14.43;;;12.98;;
14272;SDS011;7220;49.450;11.052;2023-08-21T09:54:28;13.02;;;11.93;;
14272;SDS011;7220;49.450;11.052;2023-08-21T09:58:29;13.02;;;11.75;;
14272;SDS011;7220;49.450;11.052;2023-08-21T10:02:30;13.07;;;11.80;;
14272;SDS011;7220;49.450;11.052;2023-08-21T10:06:30;12.93;;;11.63;;
14272;SDS011;7220;49.450;11.052;2023-08-21T10:10:32;11.55;;;10.57;;
14272;SDS011;7220;49.450;11.052;2023-08-21T10:14:36;11.80;;;10.80;;
14272;SDS011;7220;49.450;11.052;2023-08-21T10:18:37;11.98;;;10.88;;
14272;SDS011;7220;49.450;11.052;2023-08-21T10:22:48;11.60;;;10.60;;
14272;SDS011;7220;49.450;11.052;2023-08-21T10:26:49;12.52;;;11.27;;
14272;SDS011;7220;49.450;11.052;2023-08-21T10:30:50;11.07;;;10.03;;
14272;SDS011;7220;49.450;11.052;2023-08-21T10:34:51;10.60;;;9.68;;
14272;SDS011;7220;49.450;11.052;2023-08-21T10:38:59;12.00;;;10.88;;
14272;SDS011;7220;49.450;11.052;2023-08-21T16:17:37;7.18;;;6.47;;
14272;SDS011;7220;49.450;11.052;2023-08-21T16:21:37;9.38;;;8.40;;
14272;SDS011;7220;49.450;11.052;2023-08-21T16:25:37;11.05;;;9.98;;
14272;SDS011;7220;49.450;11.052;2023-08-21T16:29:38;10.67;;;8.43;;
14272;SDS011;7220;49.450;11.052;2023-08-21T16:33:38;7.23;;;6.53;;
14272;SDS011;7220;49.450;11.052;2023-08-21T16:37:38;6.60;;;6.00;;
14272;SDS011;7220;49.450;11.052;2023-08-21T16:41:39;7.80;;;6.55;;
14272;SDS011;7220;49.450;11.052;2023-08-21T16:45:39;6.67;;;6.03;;
14272;SDS011;7220;49.450;11.052;2023-08-21T16:49:39;6.53;;;5.88;;
14272;SDS011;7220;49.450;11.052;2023-08-21T16:53:40;6.40;;;5.80;;
14272;SDS011;7220;49.450;11.052;2023-08-21T16:57:40;6.70;;;6.10;;
14272;SDS011;7220;49.450;11.052;2023-08-21T17:01:41;6.50;;;5.37;;
14272;SDS011;7220;49.450;11.052;2023-08-21T17:05:41;8.37;;;5.47;;
14272;SDS011;7220;49.450;11.052;2023-08-21T17:09:45;7.35;;;5.88;;
14272;SDS011;7220;49.450;11.052;2023-08-21T17:13:46;6.50;;;5.55;;
14272;SDS011;7220;49.450;11.052;2023-08-21T17:17:49;8.07;;;7.28;;
14272;SDS011;7220;49.450;11.052;2023-08-21T17:21:49;8.00;;;6.45;;
14272;SDS011;7220;49.450;11.052;2023-08-21T17:25:50;7.43;;;6.72;;
14272;SDS011;7220;49.450;11.052;2023-08-21T17:29:50;7.47;;;6.40;;
14272;SDS011;7220;49.450;11.052;2023-08-21T17:33:51;8.70;;;5.65;;
14272;SDS011;7220;49.450;11.052;2023-08-21T17:37:52;7.23;;;6.03;;
14272;SDS011;7220;49.450;11.052;2023-08-21T17:41:52;6.60;;;5.37;;
14272;SDS011;7220;49.450;11.052;2023-08-21T17:45:52;7.43;;;5.43;;
14272;SDS011;7220;49.450;11.052;2023-08-21T17:49:53;5.87;;;5.47;;
14272;SDS011;7220;49.450;11.052;2023-08-21T17:53:53;7.67;;;5.90;;
14272;SDS011;7220;49.450;11.052;2023-08-21T17:57:53;6.50;;;5.90;;
14272;SDS011;7220;49.450;11.052;2023-08-21T18:01:57;8.45;;;5.88;;
14272;SDS011;7220;49.450;11.052;2023-08-21T18:05:59;6.75;;;6.15;;
14272;SDS011;7220;49.450;11.052;2023-08-21T18:10:00;6.57;;;5.97;;
14272;SDS011;7220;49.450;11.052;2023-08-21T18:14:01;7.10;;;6.10;;
14272;SDS011;7220;49.450;11.052;2023-08-21T18:18:02;7.75;;;6.40;;
14272;SDS011;7220;49.450;11.052;2023-08-21T18:22:04;6.93;;;6.03;;
14272;SDS011;7220;49.450;11.052;2023-08-21T18:26:05;7.78;;;6.43;;
14272;SDS011;7220;49.450;11.052;2023-08-21T18:30:05;7.32;;;6.18;;
14272;SDS011;7220;49.450;11.052;2023-08-21T18:34:09;7.15;;;6.22;;
14272;SDS011;7220;49.450;11.052;2023-08-21T18:38:10;6.50;;;5.83;;
14272;SDS011;7220;49.450;11.052;2023-08-21T18:42:10;8.30;;;6.07;;
14272;SDS011;7220;49.450;11.052;2023-08-21T18:46:11;7.13;;;6.43;;
14272;SDS011;7220;49.450;11.052;2023-08-21T18:50:13;7.20;;;6.60;;
14272;SDS011;7220;49.450;11.052;2023-08-21T18:54:13;7.10;;;6.40;;
14272;SDS011;7220;49.450;11.052;2023-08-21T18:58:15;7.22;;;6.38;;
14272;SDS011;7220;49.450;11.052;2023-08-21T19:02:16;9.40;;;6.78;;
14272;SDS011;7220;49.450;11.052;2023-08-21T19:06:16;7.37;;;6.60;;
14272;SDS011;7220;49.450;11.052;2023-08-21T19:10:17;8.67;;;6.97;;
14272;SDS011;7220;49.450;11.052;2023-08-21T19:14:17;7.07;;;6.38;;
14272;SDS011;7220;49.450;11.052;2023-08-21T19:18:17;8.33;;;7.03;;
14272;SDS011;7220;49.450;11.052;2023-08-21T19:22:18;6.85;;;6.18;;
14272;SDS011;7220;49.450;11.052;2023-08-21T19:26:18;7.80;;;6.57;;
14272;SDS011;7220;49.450;11.052;2023-08-21T19:30:18;6.78;;;6.18;;
14272;SDS011;7220;49.450;11.052;2023-08-21T19:34:19;7.35;;;6.65;;
14272;SDS011;7220;49.450;11.052;2023-08-21T19:38:21;6.97;;;6.28;;
14272;SDS011;7220;49.450;11.052;2023-08-21T19:42:21;7.53;;;6.83;;
14272;SDS011;7220;49.450;11.052;2023-08-21T19:46:24;8.23;;;6.85;;
14272;SDS011;7220;49.450;11.052;2023-08-21T19:50:24;7.63;;;7.00;;
14272;SDS011;7220;49.450;11.052;2023-08-21T19:54:25;8.00;;;6.97;;
14272;SDS011;7220;49.450;11.052;2023-08-21T19:58:25;8.05;;;7.35;;
14272;SDS011;7220;49.450;11.052;2023-08-21T20:02:25;8.07;;;7.30;;
14272;SDS011;7220;49.450;11.052;2023-08-21T20:06:25;7.83;;;7.07;;
14272;SDS011;7220;49.450;11.052;2023-08-21T20:10:26;9.88;;;8.40;;
14272;SDS011;7220;49.450;11.052;2023-08-21T20:14:26;8.67;;;7.87;;
14272;SDS011;7220;49.450;11.052;2023-08-21T20:18:27;10.57;;;8.80;;
14272;SDS011;7220;49.450;11.052;2023-08-21T20:22:27;12.45;;;8.70;;
14272;SDS011;7220;49.450;11.052;2023-08-21T20:26:27;11.57;;;9.47;;
14272;SDS011;7220;49.450;11.052;2023-08-21T20:30:32;9.70;;;8.73;;
14272;SDS011;7220;49.450;11.052;2023-08-21T20:34:32;10.00;;;9.00;;
14272;SDS011;7220;49.450;11.052;2023-08-21T20:38:33;10.38;;;8.43;;
14272;SDS011;7220;49.450;11.052;2023-08-21T20:42:33;11.40;;;8.43;;
14272;SDS011;7220;49.450;11.052;2023-08-21T20:46:33;13.20;;;8.70;;
14272;SDS011;7220;49.450;11.052;2023-08-21T20:50:34;9.27;;;8.27;;
14272;SDS011;7220;49.450;11.052;2023-08-21T20:54:34;9.73;;;8.25;;
14272;SDS011;7220;49.450;11.052;2023-08-21T20:58:35;9.50;;;8.57;;
14272;SDS011;7220;49.450;11.052;2023-08-21T21:02:37;10.52;;;9.50;;
14272;SDS011;7220;49.450;11.052;2023-08-21T21:06:37;8.98;;;8.18;;
14272;SDS011;7220;49.450;11.052;2023-08-21T21:10:38;9.17;;;8.23;;
14272;SDS011;7220;49.450;11.052;2023-08-21T21:14:38;8.88;;;8.00;;
14272;SDS011;7220;49.450;11.052;2023-08-21T21:18:38;9.53;;;8.67;;
14272;SDS011;7220;49.450;11.052;2023-08-21T21:22:39;9.57;;;8.63;;
14272;SDS011;7220;49.450;11.052;2023-08-21T21:26:39;9.32;;;8.40;;
14272;SDS011;7220;49.450;11.052;2023-08-21T21:30:40;9.48;;;8.48;;
14272;SDS011;7220;49.450;11.052;2023-08-21T21:34:40;10.10;;;8.90;;
14272;SDS011;7220;49.450;11.052;2023-08-21T21:38:41;9.53;;;8.67;;
14272;SDS011;7220;49.450;11.052;2023-08-21T21:42:41;8.93;;;8.23;;
14272;SDS011;7220;49.450;11.052;2023-08-21T21:46:41;14.52;;;9.05;;
14272;SDS011;7220;49.450;11.052;2023-08-21T21:50:42;9.87;;;8.87;;
14272;SDS011;7220;49.450;11.052;2023-08-21T21:54:42;9.73;;;8.70;;
14272;SDS011;7220;49.450;11.052;2023-08-21T21:58:42;9.90;;;8.93;;
14272;SDS011;7220;49.450;11.052;2023-08-21T22:02:43;9.50;;;8.52;;
14272;SDS011;7220;49.450;11.052;2023-08-21T22:06:43;9.07;;;8.20;;
14272;SDS011;7220;49.450;11.052;2023-08-21T22:10:45;9.02;;;8.13;;
14272;SDS011;7220;49.450;11.052;2023-08-21T22:14:45;8.23;;;7.43;;
14272;SDS011;7220;49.450;11.052;2023-08-21T22:18:45;9.40;;;8.50;;
14272;SDS011;7220;49.450;11.052;2023-08-21T22:22:46;9.30;;;8.50;;
14272;SDS011;7220;49.450;11.052;2023-08-21T22:26:46;9.70;;;7.90;;
14272;SDS011;7220;49.450;11.052;2023-08-21T22:30:46;9.60;;;8.73;;
14272;SDS011;7220;49.450;11.052;2023-08-21T22:34:47;8.97;;;8.10;;
14272;SDS011;7220;49.450;11.052;2023-08-21T22:38:47;10.50;;;8.93;;
14272;SDS011;7220;49.450;11.052;2023-08-21T22:42:47;9.33;;;8.53;;
14272;SDS011;7220;49.450;11.052;2023-08-21T22:46:47;9.70;;;8.53;;
14272;SDS011;7220;49.450;11.052;2023-08-21T22:50:48;8.95;;;8.02;;
14272;SDS011;7220;49.450;11.052;2023-08-21T22:54:49;12.10;;;8.90;;
14272;SDS011;7220;49.450;11.052;2023-08-21T22:58:49;8.73;;;8.02;;
14272;SDS011;7220;49.450;11.052;2023-08-21T23:02:49;9.43;;;8.33;;
14272;SDS011;7220;49.450;11.052;2023-08-21T23:06:49;9.00;;;8.20;;
14272;SDS011;7220;49.450;11.052;2023-08-21T23:10:50;9.70;;;8.73;;
14272;SDS011;7220;49.450;11.052;2023-08-21T23:14:50;10.10;;;9.20;;
14272;SDS011;7220;49.450;11.052;2023-08-21T23:18:50;9.68;;;8.80;;
14272;SDS011;7220;49.450;11.052;2023-08-21T23:22:51;10.83;;;9.33;;
14272;SDS011;7220;49.450;11.052;2023-08-21T23:26:51;9.50;;;8.57;;
14272;SDS011;7220;49.450;11.052;2023-08-21T23:30:51;9.43;;;8.63;;
14272;SDS011;7220;49.450;11.052;2023-08-21T23:34:53;9.80;;;8.80;;
14272;SDS011;7220;49.450;11.052;2023-08-21T23:38:53;10.97;;;9.60;;
14272;SDS011;7220;49.450;11.052;2023-08-21T23:42:54;9.75;;;8.45;;
14272;SDS011;7220;49.450;11.052;2023-08-21T23:46:55;10.25;;;8.98;;
14272;SDS011;7220;49.450;11.052;2023-08-21T23:50:55;10.50;;;9.33;;
14272;SDS011;7220;49.450;11.052;2023-08-21T23:54:56;10.33;;;9.33;;
14272;SDS011;7220;49.450;11.052;2023-08-21T23:58:56;9.73;;;8.93;;
